sensor_id;sensor_type;location;lat;lon;timestamp;temperature;humidity
25991;DHT22;13779;-33.886;151.198;2023-01-28T00:01:19;26.50;99.90
25991;DHT22;13779;-33.886;151.198;2023-01-28T00:03:53;26.60;99.90
25991;DHT22;13779;-33.886;151.198;2023-01-28T00:06:24;26.60;99.90
25991;DHT22;13779;-33.886;151.198;2023-01-28T00:08:54;26.60;99.90
25991;DHT22;13779;-33.886;151.198;2023-01-28T00:11:24;26.70;99.90
25991;DHT22;13779;-33.886;151.198;2023-01-28T00:13:54;26.70;99.90
25991;DHT22;13779;-33.886;151.198;2023-01-28T00:16:25;26.80;99.90
25991;DHT22;13779;-33.886;151.198;2023-01-28T00:18:56;26.90;99.90
25991;DHT22;13779;-33.886;151.198;2023-01-28T00:21:26;27.00;99.90
25991;DHT22;13779;-33.886;151.198;2023-01-28T00:23:56;27.00;99.90
25991;DHT22;13779;-33.886;151.198;2023-01-28T00:26:27;27.10;99.90
25991;DHT22;13779;-33.886;151.198;2023-01-28T00:28:57;27.10;99.90
25991;DHT22;13779;-33.886;151.198;2023-01-28T00:31:27;27.10;99.90
25991;DHT22;13779;-33.886;151.198;2023-01-28T00:33:57;27.20;99.90
25991;DHT22;13779;-33.886;151.198;2023-01-28T00:36:27;27.20;99.90
25991;DHT22;13779;-33.886;151.198;2023-01-28T00:38:58;27.30;99.90
25991;DHT22;13779;-33.886;151.198;2023-01-28T00:41:29;27.40;99.90
25991;DHT22;13779;-33.886;151.198;2023-01-28T00:44:00;27.40;99.90
25991;DHT22;13779;-33.886;151.198;2023-01-28T00:46:30;27.40;99.90
25991;DHT22;13779;-33.886;151.198;2023-01-28T00:49:01;27.50;99.90
25991;DHT22;13779;-33.886;151.198;2023-01-28T00:51:31;27.40;99.90
25991;DHT22;13779;-33.886;151.198;2023-01-28T00:54:01;27.40;99.90
25991;DHT22;13779;-33.886;151.198;2023-01-28T00:56:31;27.50;99.90
25991;DHT22;13779;-33.886;151.198;2023-01-28T00:59:02;27.60;99.90
25991;DHT22;13779;-33.886;151.198;2023-01-28T01:01:33;27.50;99.90
25991;DHT22;13779;-33.886;151.198;2023-01-28T01:04:03;27.50;99.90
25991;DHT22;13779;-33.886;151.198;2023-01-28T01:06:36;27.60;99.90
25991;DHT22;13779;-33.886;151.198;2023-01-28T01:09:10;27.70;99.90
25991;DHT22;13779;-33.886;151.198;2023-01-28T01:11:40;27.70;99.90
25991;DHT22;13779;-33.886;151.198;2023-01-28T01:14:11;27.70;99.90
25991;DHT22;13779;-33.886;151.198;2023-01-28T01:16:41;27.70;99.90
25991;DHT22;13779;-33.886;151.198;2023-01-28T01:19:11;27.70;99.90
25991;DHT22;13779;-33.886;151.198;2023-01-28T01:21:41;27.60;99.90
25991;DHT22;13779;-33.886;151.198;2023-01-28T01:24:11;27.70;99.90
25991;DHT22;13779;-33.886;151.198;2023-01-28T01:26:41;27.80;99.90
25991;DHT22;13779;-33.886;151.198;2023-01-28T01:29:11;27.90;99.90
25991;DHT22;13779;-33.886;151.198;2023-01-28T01:31:41;27.80;99.90
25991;DHT22;13779;-33.886;151.198;2023-01-28T01:34:12;27.80;99.90
25991;DHT22;13779;-33.886;151.198;2023-01-28T01:36:42;27.80;99.90
25991;DHT22;13779;-33.886;151.198;2023-01-28T01:39:14;27.80;99.90
25991;DHT22;13779;-33.886;151.198;2023-01-28T01:41:45;27.90;99.90
25991;DHT22;13779;-33.886;151.198;2023-01-28T01:52:42;27.90;99.90
25991;DHT22;13779;-33.886;151.198;2023-01-28T01:55:18;27.80;99.90
25991;DHT22;13779;-33.886;151.198;2023-01-28T01:57:50;27.80;99.90
25991;DHT22;13779;-33.886;151.198;2023-01-28T02:00:21;27.70;99.90
25991;DHT22;13779;-33.886;151.198;2023-01-28T02:02:51;27.60;99.90
25991;DHT22;13779;-33.886;151.198;2023-01-28T02:05:21;27.60;99.90
25991;DHT22;13779;-33.886;151.198;2023-01-28T02:07:53;27.50;99.90
25991;DHT22;13779;-33.886;151.198;2023-01-28T02:10:54;27.50;99.90
25991;DHT22;13779;-33.886;151.198;2023-01-28T02:13:34;27.60;99.90
25991;DHT22;13779;-33.886;151.198;2023-01-28T02:16:06;27.60;99.90
25991;DHT22;13779;-33.886;151.198;2023-01-28T02:18:37;27.60;99.90
25991;DHT22;13779;-33.886;151.198;2023-01-28T02:38:07;27.40;99.90
25991;DHT22;13779;-33.886;151.198;2023-01-28T02:40:41;27.30;99.90
25991;DHT22;13779;-33.886;151.198;2023-01-28T02:46:32;27.30;99.90
25991;DHT22;13779;-33.886;151.198;2023-01-28T03:01:23;27.40;99.90
25991;DHT22;13779;-33.886;151.198;2023-01-28T03:03:56;27.40;99.90
25991;DHT22;13779;-33.886;151.198;2023-01-28T03:06:34;27.40;99.90
25991;DHT22;13779;-33.886;151.198;2023-01-28T03:09:09;27.50;99.90
25991;DHT22;13779;-33.886;151.198;2023-01-28T03:12:00;27.60;99.90
25991;DHT22;13779;-33.886;151.198;2023-01-28T03:15:12;27.60;99.90
25991;DHT22;13779;-33.886;151.198;2023-01-28T03:18:06;27.60;99.90
25991;DHT22;13779;-33.886;151.198;2023-01-28T03:27:12;27.50;99.90
25991;DHT22;13779;-33.886;151.198;2023-01-28T03:30:00;27.30;99.90
25991;DHT22;13779;-33.886;151.198;2023-01-28T03:32:50;27.50;99.90
25991;DHT22;13779;-33.886;151.198;2023-01-28T03:35:39;27.50;99.90
25991;DHT22;13779;-33.886;151.198;2023-01-28T03:38:28;27.60;99.90
25991;DHT22;13779;-33.886;151.198;2023-01-28T03:41:03;27.50;99.90
25991;DHT22;13779;-33.886;151.198;2023-01-28T03:43:32;27.50;99.90
25991;DHT22;13779;-33.886;151.198;2023-01-28T03:46:03;27.30;99.90
25991;DHT22;13779;-33.886;151.198;2023-01-28T03:48:35;27.20;99.90
25991;DHT22;13779;-33.886;151.198;2023-01-28T03:51:05;27.10;99.90
25991;DHT22;13779;-33.886;151.198;2023-01-28T03:53:36;27.10;99.90
25991;DHT22;13779;-33.886;151.198;2023-01-28T03:56:07;27.10;99.90
25991;DHT22;13779;-33.886;151.198;2023-01-28T03:58:37;27.00;99.90
25991;DHT22;13779;-33.886;151.198;2023-01-28T04:01:24;27.00;99.90
25991;DHT22;13779;-33.886;151.198;2023-01-28T04:03:55;27.00;99.90
25991;DHT22;13779;-33.886;151.198;2023-01-28T04:06:25;26.90;99.90
25991;DHT22;13779;-33.886;151.198;2023-01-28T04:08:55;27.00;99.90
25991;DHT22;13779;-33.886;151.198;2023-01-28T04:11:27;27.00;99.90
25991;DHT22;13779;-33.886;151.198;2023-01-28T04:13:57;27.10;99.90
25991;DHT22;13779;-33.886;151.198;2023-01-28T04:16:27;27.20;99.90
25991;DHT22;13779;-33.886;151.198;2023-01-28T04:18:58;27.40;99.90
25991;DHT22;13779;-33.886;151.198;2023-01-28T04:21:28;27.50;99.90
25991;DHT22;13779;-33.886;151.198;2023-01-28T04:23:58;27.70;99.90
25991;DHT22;13779;-33.886;151.198;2023-01-28T04:26:28;27.60;99.90
25991;DHT22;13779;-33.886;151.198;2023-01-28T04:28:58;27.60;99.90
25991;DHT22;13779;-33.886;151.198;2023-01-28T04:31:28;27.50;99.90
25991;DHT22;13779;-33.886;151.198;2023-01-28T04:33:59;27.40;99.90
25991;DHT22;13779;-33.886;151.198;2023-01-28T04:36:29;27.30;99.90
25991;DHT22;13779;-33.886;151.198;2023-01-28T04:38:59;27.30;99.90
25991;DHT22;13779;-33.886;151.198;2023-01-28T04:41:29;27.40;99.90
25991;DHT22;13779;-33.886;151.198;2023-01-28T04:44:00;27.30;99.90
25991;DHT22;13779;-33.886;151.198;2023-01-28T04:46:31;27.40;99.90
25991;DHT22;13779;-33.886;151.198;2023-01-28T04:49:01;27.40;99.90
25991;DHT22;13779;-33.886;151.198;2023-01-28T04:51:31;27.40;99.90
25991;DHT22;13779;-33.886;151.198;2023-01-28T04:54:01;27.50;99.90
25991;DHT22;13779;-33.886;151.198;2023-01-28T04:56:32;27.50;99.90
25991;DHT22;13779;-33.886;151.198;2023-01-28T04:59:02;27.50;99.90
25991;DHT22;13779;-33.886;151.198;2023-01-28T05:01:32;27.50;99.90
25991;DHT22;13779;-33.886;151.198;2023-01-28T05:04:03;27.50;99.90
25991;DHT22;13779;-33.886;151.198;2023-01-28T05:06:33;27.60;99.90
25991;DHT22;13779;-33.886;151.198;2023-01-28T05:09:03;27.60;99.90
25991;DHT22;13779;-33.886;151.198;2023-01-28T05:11:33;27.60;99.90
25991;DHT22;13779;-33.886;151.198;2023-01-28T05:14:06;27.50;99.90
25991;DHT22;13779;-33.886;151.198;2023-01-28T05:16:36;27.50;99.90
25991;DHT22;13779;-33.886;151.198;2023-01-28T05:19:06;27.60;99.90
25991;DHT22;13779;-33.886;151.198;2023-01-28T05:21:36;27.60;99.90
25991;DHT22;13779;-33.886;151.198;2023-01-28T05:24:06;27.60;99.90
25991;DHT22;13779;-33.886;151.198;2023-01-28T05:26:37;27.50;99.90
25991;DHT22;13779;-33.886;151.198;2023-01-28T05:29:07;27.50;99.90
25991;DHT22;13779;-33.886;151.198;2023-01-28T05:31:37;27.40;99.90
25991;DHT22;13779;-33.886;151.198;2023-01-28T05:34:09;27.40;99.90
25991;DHT22;13779;-33.886;151.198;2023-01-28T05:36:40;27.40;99.90
25991;DHT22;13779;-33.886;151.198;2023-01-28T05:39:10;27.40;99.90
25991;DHT22;13779;-33.886;151.198;2023-01-28T05:41:40;27.40;99.90
25991;DHT22;13779;-33.886;151.198;2023-01-28T05:44:10;27.40;99.90
25991;DHT22;13779;-33.886;151.198;2023-01-28T05:46:40;27.50;99.90
25991;DHT22;13779;-33.886;151.198;2023-01-28T05:49:15;27.50;99.90
25991;DHT22;13779;-33.886;151.198;2023-01-28T05:51:47;27.50;99.90
25991;DHT22;13779;-33.886;151.198;2023-01-28T05:54:18;27.40;99.90
25991;DHT22;13779;-33.886;151.198;2023-01-28T05:56:48;27.40;99.90
25991;DHT22;13779;-33.886;151.198;2023-01-28T05:59:18;27.40;99.90
25991;DHT22;13779;-33.886;151.198;2023-01-28T06:01:48;27.40;99.90
25991;DHT22;13779;-33.886;151.198;2023-01-28T06:04:18;27.30;99.90
25991;DHT22;13779;-33.886;151.198;2023-01-28T06:06:54;27.40;99.90
25991;DHT22;13779;-33.886;151.198;2023-01-28T06:09:26;27.30;99.90
25991;DHT22;13779;-33.886;151.198;2023-01-28T06:11:56;27.20;99.90
25991;DHT22;13779;-33.886;151.198;2023-01-28T06:14:27;27.20;99.90
25991;DHT22;13779;-33.886;151.198;2023-01-28T06:16:57;27.10;99.90
25991;DHT22;13779;-33.886;151.198;2023-01-28T06:19:27;27.10;99.90
25991;DHT22;13779;-33.886;151.198;2023-01-28T06:21:57;27.10;99.90
25991;DHT22;13779;-33.886;151.198;2023-01-28T06:24:28;27.00;99.90
25991;DHT22;13779;-33.886;151.198;2023-01-28T06:26:58;27.00;99.90
25991;DHT22;13779;-33.886;151.198;2023-01-28T06:29:28;27.00;99.90
25991;DHT22;13779;-33.886;151.198;2023-01-28T06:31:58;27.10;99.90
25991;DHT22;13779;-33.886;151.198;2023-01-28T06:34:28;27.10;99.90
25991;DHT22;13779;-33.886;151.198;2023-01-28T06:36:58;27.10;99.90
25991;DHT22;13779;-33.886;151.198;2023-01-28T06:39:29;27.00;99.90
25991;DHT22;13779;-33.886;151.198;2023-01-28T06:42:01;27.00;99.90
25991;DHT22;13779;-33.886;151.198;2023-01-28T06:44:31;26.90;99.90
25991;DHT22;13779;-33.886;151.198;2023-01-28T06:47:01;27.00;99.90
25991;DHT22;13779;-33.886;151.198;2023-01-28T06:49:32;27.00;99.90
25991;DHT22;13779;-33.886;151.198;2023-01-28T06:52:02;27.00;99.90
25991;DHT22;13779;-33.886;151.198;2023-01-28T06:54:32;27.00;99.90
25991;DHT22;13779;-33.886;151.198;2023-01-28T06:57:03;27.00;99.90
25991;DHT22;13779;-33.886;151.198;2023-01-28T06:59:33;26.90;99.90
25991;DHT22;13779;-33.886;151.198;2023-01-28T07:02:03;26.90;99.90
25991;DHT22;13779;-33.886;151.198;2023-01-28T07:04:33;26.90;99.90
25991;DHT22;13779;-33.886;151.198;2023-01-28T07:07:03;26.90;99.90
25991;DHT22;13779;-33.886;151.198;2023-01-28T07:09:34;26.90;99.90
25991;DHT22;13779;-33.886;151.198;2023-01-28T07:12:07;26.90;99.90
25991;DHT22;13779;-33.886;151.198;2023-01-28T07:14:39;26.90;99.90
25991;DHT22;13779;-33.886;151.198;2023-01-28T07:17:12;26.90;99.90
25991;DHT22;13779;-33.886;151.198;2023-01-28T07:19:42;26.90;99.90
25991;DHT22;13779;-33.886;151.198;2023-01-28T07:22:12;26.80;99.90
25991;DHT22;13779;-33.886;151.198;2023-01-28T07:24:43;26.80;99.90
25991;DHT22;13779;-33.886;151.198;2023-01-28T07:27:14;26.80;99.90
25991;DHT22;13779;-33.886;151.198;2023-01-28T07:29:44;26.80;99.90
25991;DHT22;13779;-33.886;151.198;2023-01-28T07:32:16;26.80;99.90
25991;DHT22;13779;-33.886;151.198;2023-01-28T07:34:46;26.80;99.90
25991;DHT22;13779;-33.886;151.198;2023-01-28T07:37:20;26.70;99.90
25991;DHT22;13779;-33.886;151.198;2023-01-28T07:39:50;26.60;99.90
25991;DHT22;13779;-33.886;151.198;2023-01-28T07:42:20;26.50;99.90
25991;DHT22;13779;-33.886;151.198;2023-01-28T07:44:50;26.50;99.90
25991;DHT22;13779;-33.886;151.198;2023-01-28T07:47:20;26.40;99.90
25991;DHT22;13779;-33.886;151.198;2023-01-28T07:49:51;26.40;99.90
25991;DHT22;13779;-33.886;151.198;2023-01-28T07:52:21;26.40;99.90
25991;DHT22;13779;-33.886;151.198;2023-01-28T07:54:51;26.40;99.90
25991;DHT22;13779;-33.886;151.198;2023-01-28T07:57:21;26.40;99.90
25991;DHT22;13779;-33.886;151.198;2023-01-28T08:00:01;26.30;99.90
25991;DHT22;13779;-33.886;151.198;2023-01-28T08:02:32;26.30;99.90
25991;DHT22;13779;-33.886;151.198;2023-01-28T08:05:02;26.30;99.90
25991;DHT22;13779;-33.886;151.198;2023-01-28T08:07:33;26.30;99.90
25991;DHT22;13779;-33.886;151.198;2023-01-28T08:10:03;26.20;99.90
25991;DHT22;13779;-33.886;151.198;2023-01-28T08:12:33;26.30;99.90
25991;DHT22;13779;-33.886;151.198;2023-01-28T08:15:04;26.30;99.90
25991;DHT22;13779;-33.886;151.198;2023-01-28T08:17:34;26.20;99.90
25991;DHT22;13779;-33.886;151.198;2023-01-28T08:20:05;26.20;99.90
25991;DHT22;13779;-33.886;151.198;2023-01-28T08:22:35;26.20;99.90
25991;DHT22;13779;-33.886;151.198;2023-01-28T08:25:08;26.10;99.90
25991;DHT22;13779;-33.886;151.198;2023-01-28T08:27:38;26.10;99.90
25991;DHT22;13779;-33.886;151.198;2023-01-28T08:30:09;26.10;99.90
25991;DHT22;13779;-33.886;151.198;2023-01-28T08:32:40;26.10;99.90
25991;DHT22;13779;-33.886;151.198;2023-01-28T08:35:10;26.00;99.90
25991;DHT22;13779;-33.886;151.198;2023-01-28T08:37:40;26.00;99.90
25991;DHT22;13779;-33.886;151.198;2023-01-28T08:40:11;25.90;99.90
25991;DHT22;13779;-33.886;151.198;2023-01-28T08:42:51;25.90;99.90
25991;DHT22;13779;-33.886;151.198;2023-01-28T08:45:25;25.90;99.90
25991;DHT22;13779;-33.886;151.198;2023-01-28T08:47:57;25.90;99.90
25991;DHT22;13779;-33.886;151.198;2023-01-28T08:50:31;25.90;99.90
25991;DHT22;13779;-33.886;151.198;2023-01-28T08:53:04;25.80;99.90
25991;DHT22;13779;-33.886;151.198;2023-01-28T08:55:34;25.80;99.90
25991;DHT22;13779;-33.886;151.198;2023-01-28T08:58:06;25.80;99.90
25991;DHT22;13779;-33.886;151.198;2023-01-28T09:00:37;25.80;99.90
25991;DHT22;13779;-33.886;151.198;2023-01-28T09:03:09;25.70;99.90
25991;DHT22;13779;-33.886;151.198;2023-01-28T09:05:42;25.70;99.90
25991;DHT22;13779;-33.886;151.198;2023-01-28T09:08:14;25.80;99.90
25991;DHT22;13779;-33.886;151.198;2023-01-28T09:10:45;25.80;99.90
25991;DHT22;13779;-33.886;151.198;2023-01-28T09:13:15;25.70;99.90
25991;DHT22;13779;-33.886;151.198;2023-01-28T09:15:46;25.70;99.90
25991;DHT22;13779;-33.886;151.198;2023-01-28T09:18:17;25.60;99.90
25991;DHT22;13779;-33.886;151.198;2023-01-28T09:20:47;25.60;99.90
25991;DHT22;13779;-33.886;151.198;2023-01-28T09:23:17;25.60;99.90
25991;DHT22;13779;-33.886;151.198;2023-01-28T09:25:47;25.60;99.90
25991;DHT22;13779;-33.886;151.198;2023-01-28T09:28:18;25.60;99.90
25991;DHT22;13779;-33.886;151.198;2023-01-28T09:30:48;25.50;99.90
25991;DHT22;13779;-33.886;151.198;2023-01-28T09:33:18;25.50;99.90
25991;DHT22;13779;-33.886;151.198;2023-01-28T09:35:48;25.50;99.90
25991;DHT22;13779;-33.886;151.198;2023-01-28T09:38:18;25.50;99.90
25991;DHT22;13779;-33.886;151.198;2023-01-28T09:40:49;25.50;99.90
25991;DHT22;13779;-33.886;151.198;2023-01-28T09:43:39;25.50;99.90
25991;DHT22;13779;-33.886;151.198;2023-01-28T09:46:15;25.50;99.90
25991;DHT22;13779;-33.886;151.198;2023-01-28T09:48:50;25.50;99.90
25991;DHT22;13779;-33.886;151.198;2023-01-28T09:51:42;25.50;99.90
25991;DHT22;13779;-33.886;151.198;2023-01-28T09:54:47;25.40;99.90
25991;DHT22;13779;-33.886;151.198;2023-01-28T09:57:24;25.50;99.90
25991;DHT22;13779;-33.886;151.198;2023-01-28T09:59:55;25.50;99.90
25991;DHT22;13779;-33.886;151.198;2023-01-28T10:08:13;25.40;99.90
25991;DHT22;13779;-33.886;151.198;2023-01-28T10:11:19;25.40;99.90
25991;DHT22;13779;-33.886;151.198;2023-01-28T10:14:05;25.40;99.90
25991;DHT22;13779;-33.886;151.198;2023-01-28T10:17:01;25.40;99.90
25991;DHT22;13779;-33.886;151.198;2023-01-28T10:19:35;25.40;99.90
25991;DHT22;13779;-33.886;151.198;2023-01-28T10:22:20;25.50;99.90
25991;DHT22;13779;-33.886;151.198;2023-01-28T10:25:01;25.50;99.90
25991;DHT22;13779;-33.886;151.198;2023-01-28T10:27:35;25.40;99.90
25991;DHT22;13779;-33.886;151.198;2023-01-28T10:35:42;25.40;99.90
25991;DHT22;13779;-33.886;151.198;2023-01-28T10:38:16;25.40;99.90
25991;DHT22;13779;-33.886;151.198;2023-01-28T10:40:49;25.50;99.90
25991;DHT22;13779;-33.886;151.198;2023-01-28T10:43:22;25.50;99.90
25991;DHT22;13779;-33.886;151.198;2023-01-28T10:48:33;25.40;99.90
25991;DHT22;13779;-33.886;151.198;2023-01-28T10:51:05;25.50;99.90
25991;DHT22;13779;-33.886;151.198;2023-01-28T10:53:45;25.50;99.90
25991;DHT22;13779;-33.886;151.198;2023-01-28T10:59:16;25.50;99.90
25991;DHT22;13779;-33.886;151.198;2023-01-28T11:02:03;25.40;99.90
25991;DHT22;13779;-33.886;151.198;2023-01-28T11:04:35;25.40;99.90
25991;DHT22;13779;-33.886;151.198;2023-01-28T11:07:16;25.50;99.90
25991;DHT22;13779;-33.886;151.198;2023-01-28T11:09:49;25.40;99.90
25991;DHT22;13779;-33.886;151.198;2023-01-28T11:12:25;25.40;99.90
25991;DHT22;13779;-33.886;151.198;2023-01-28T11:15:03;25.40;99.90
25991;DHT22;13779;-33.886;151.198;2023-01-28T11:17:36;25.40;99.90
25991;DHT22;13779;-33.886;151.198;2023-01-28T11:20:18;25.40;99.90
25991;DHT22;13779;-33.886;151.198;2023-01-28T11:22:50;25.40;99.90
25991;DHT22;13779;-33.886;151.198;2023-01-28T11:25:33;25.40;99.90
25991;DHT22;13779;-33.886;151.198;2023-01-28T11:28:07;25.40;99.90
25991;DHT22;13779;-33.886;151.198;2023-01-28T11:30:43;25.40;99.90
25991;DHT22;13779;-33.886;151.198;2023-01-28T11:33:23;25.40;99.90
25991;DHT22;13779;-33.886;151.198;2023-01-28T11:36:13;25.40;99.90
25991;DHT22;13779;-33.886;151.198;2023-01-28T11:39:15;25.40;99.90
25991;DHT22;13779;-33.886;151.198;2023-01-28T11:41:46;25.40;99.90
25991;DHT22;13779;-33.886;151.198;2023-01-28T11:44:23;25.40;99.90
25991;DHT22;13779;-33.886;151.198;2023-01-28T11:47:00;25.30;99.90
25991;DHT22;13779;-33.886;151.198;2023-01-28T11:50:03;25.40;99.90
25991;DHT22;13779;-33.886;151.198;2023-01-28T11:55:36;25.30;99.90
25991;DHT22;13779;-33.886;151.198;2023-01-28T11:58:21;25.30;99.90
25991;DHT22;13779;-33.886;151.198;2023-01-28T12:01:11;25.30;99.90
25991;DHT22;13779;-33.886;151.198;2023-01-28T12:09:04;25.30;99.90
25991;DHT22;13779;-33.886;151.198;2023-01-28T12:21:06;25.20;99.90
25991;DHT22;13779;-33.886;151.198;2023-01-28T12:23:54;25.20;99.90
25991;DHT22;13779;-33.886;151.198;2023-01-28T12:26:45;25.10;99.90
25991;DHT22;13779;-33.886;151.198;2023-01-28T12:29:30;25.10;99.90
25991;DHT22;13779;-33.886;151.198;2023-01-28T12:38:08;25.10;99.90
25991;DHT22;13779;-33.886;151.198;2023-01-28T12:41:10;25.10;99.90
25991;DHT22;13779;-33.886;151.198;2023-01-28T12:44:02;25.10;99.90
25991;DHT22;13779;-33.886;151.198;2023-01-28T12:46:54;25.10;99.90
25991;DHT22;13779;-33.886;151.198;2023-01-28T12:49:34;25.10;99.90
25991;DHT22;13779;-33.886;151.198;2023-01-28T12:52:26;25.10;99.90
25991;DHT22;13779;-33.886;151.198;2023-01-28T12:55:00;25.10;99.90
25991;DHT22;13779;-33.886;151.198;2023-01-28T12:57:40;25.10;99.90
25991;DHT22;13779;-33.886;151.198;2023-01-28T13:00:31;25.10;99.90
25991;DHT22;13779;-33.886;151.198;2023-01-28T13:06:12;25.10;99.90
25991;DHT22;13779;-33.886;151.198;2023-01-28T13:08:44;25.10;99.90
25991;DHT22;13779;-33.886;151.198;2023-01-28T13:11:16;25.10;99.90
25991;DHT22;13779;-33.886;151.198;2023-01-28T13:13:47;25.10;99.90
25991;DHT22;13779;-33.886;151.198;2023-01-28T13:16:17;25.10;99.90
25991;DHT22;13779;-33.886;151.198;2023-01-28T13:19:24;25.10;99.90
25991;DHT22;13779;-33.886;151.198;2023-01-28T13:21:55;25.10;99.90
25991;DHT22;13779;-33.886;151.198;2023-01-28T13:24:31;25.10;99.90
25991;DHT22;13779;-33.886;151.198;2023-01-28T13:27:11;25.10;99.90
25991;DHT22;13779;-33.886;151.198;2023-01-28T13:29:47;25.10;99.90
25991;DHT22;13779;-33.886;151.198;2023-01-28T13:32:33;25.10;99.90
25991;DHT22;13779;-33.886;151.198;2023-01-28T13:35:23;25.10;99.90
25991;DHT22;13779;-33.886;151.198;2023-01-28T13:37:55;25.10;99.90
25991;DHT22;13779;-33.886;151.198;2023-01-28T13:40:27;25.10;99.90
25991;DHT22;13779;-33.886;151.198;2023-01-28T13:43:24;25.10;99.90
25991;DHT22;13779;-33.886;151.198;2023-01-28T13:46:00;25.10;99.90
25991;DHT22;13779;-33.886;151.198;2023-01-28T13:51:31;25.10;99.90
25991;DHT22;13779;-33.886;151.198;2023-01-28T13:54:14;25.00;99.90
25991;DHT22;13779;-33.886;151.198;2023-01-28T14:11:19;25.10;99.90
25991;DHT22;13779;-33.886;151.198;2023-01-28T14:16:54;25.10;99.90
25991;DHT22;13779;-33.886;151.198;2023-01-28T14:19:33;25.10;99.90
25991;DHT22;13779;-33.886;151.198;2023-01-28T14:22:09;25.00;99.90
25991;DHT22;13779;-33.886;151.198;2023-01-28T14:24:43;25.00;99.90
25991;DHT22;13779;-33.886;151.198;2023-01-28T14:27:37;25.00;99.90
25991;DHT22;13779;-33.886;151.198;2023-01-28T14:30:28;25.00;99.90
25991;DHT22;13779;-33.886;151.198;2023-01-28T14:33:00;25.00;99.90
25991;DHT22;13779;-33.886;151.198;2023-01-28T14:35:32;25.00;99.90
25991;DHT22;13779;-33.886;151.198;2023-01-28T14:38:11;25.10;99.90
25991;DHT22;13779;-33.886;151.198;2023-01-28T14:40:42;25.00;99.90
25991;DHT22;13779;-33.886;151.198;2023-01-28T14:43:23;25.00;99.90
25991;DHT22;13779;-33.886;151.198;2023-01-28T14:52:03;25.00;99.90
25991;DHT22;13779;-33.886;151.198;2023-01-28T15:00:00;25.00;99.90
25991;DHT22;13779;-33.886;151.198;2023-01-28T15:02:31;24.90;99.90
25991;DHT22;13779;-33.886;151.198;2023-01-28T15:05:09;24.90;99.90
25991;DHT22;13779;-33.886;151.198;2023-01-28T15:07:47;24.80;99.90
25991;DHT22;13779;-33.886;151.198;2023-01-28T15:10:27;24.90;99.90
25991;DHT22;13779;-33.886;151.198;2023-01-28T15:13:06;24.90;99.90
25991;DHT22;13779;-33.886;151.198;2023-01-28T15:15:39;24.90;99.90
25991;DHT22;13779;-33.886;151.198;2023-01-28T15:18:22;24.90;99.90
25991;DHT22;13779;-33.886;151.198;2023-01-28T15:20:57;24.90;99.90
25991;DHT22;13779;-33.886;151.198;2023-01-28T15:26:14;24.90;99.90
25991;DHT22;13779;-33.886;151.198;2023-01-28T15:28:46;24.90;99.90
25991;DHT22;13779;-33.886;151.198;2023-01-28T15:31:23;25.00;99.90
25991;DHT22;13779;-33.886;151.198;2023-01-28T15:34:02;24.90;99.90
25991;DHT22;13779;-33.886;151.198;2023-01-28T15:36:33;25.00;99.90
25991;DHT22;13779;-33.886;151.198;2023-01-28T15:39:03;24.90;99.90
25991;DHT22;13779;-33.886;151.198;2023-01-28T15:41:38;25.00;99.90
25991;DHT22;13779;-33.886;151.198;2023-01-28T15:44:34;24.90;99.90
25991;DHT22;13779;-33.886;151.198;2023-01-28T15:47:25;25.00;99.90
25991;DHT22;13779;-33.886;151.198;2023-01-28T15:50:02;24.90;99.90
25991;DHT22;13779;-33.886;151.198;2023-01-28T15:52:38;25.00;99.90
25991;DHT22;13779;-33.886;151.198;2023-01-28T15:55:35;24.90;99.90
25991;DHT22;13779;-33.886;151.198;2023-01-28T16:00:46;25.00;99.90
25991;DHT22;13779;-33.886;151.198;2023-01-28T16:03:19;25.00;99.90
25991;DHT22;13779;-33.886;151.198;2023-01-28T16:06:02;25.00;99.90
25991;DHT22;13779;-33.886;151.198;2023-01-28T16:11:31;25.00;99.90
25991;DHT22;13779;-33.886;151.198;2023-01-28T16:14:02;25.10;99.90
25991;DHT22;13779;-33.886;151.198;2023-01-28T16:16:36;25.10;99.90
25991;DHT22;13779;-33.886;151.198;2023-01-28T16:19:14;25.10;99.90
25991;DHT22;13779;-33.886;151.198;2023-01-28T16:21:46;25.10;99.90
25991;DHT22;13779;-33.886;151.198;2023-01-28T16:24:25;25.10;99.90
25991;DHT22;13779;-33.886;151.198;2023-01-28T16:27:04;25.00;99.90
25991;DHT22;13779;-33.886;151.198;2023-01-28T16:29:37;25.00;99.90
25991;DHT22;13779;-33.886;151.198;2023-01-28T16:34:57;25.10;99.90
25991;DHT22;13779;-33.886;151.198;2023-01-28T16:37:28;25.10;99.90
25991;DHT22;13779;-33.886;151.198;2023-01-28T16:39:58;25.00;99.90
25991;DHT22;13779;-33.886;151.198;2023-01-28T16:42:30;25.00;99.90
25991;DHT22;13779;-33.886;151.198;2023-01-28T16:45:01;25.10;99.90
25991;DHT22;13779;-33.886;151.198;2023-01-28T16:47:31;25.00;99.90
25991;DHT22;13779;-33.886;151.198;2023-01-28T16:50:01;25.00;99.90
25991;DHT22;13779;-33.886;151.198;2023-01-28T16:52:32;25.00;99.90
25991;DHT22;13779;-33.886;151.198;2023-01-28T16:55:03;25.00;99.90
25991;DHT22;13779;-33.886;151.198;2023-01-28T16:57:39;25.00;99.90
25991;DHT22;13779;-33.886;151.198;2023-01-28T17:00:29;25.00;99.90
25991;DHT22;13779;-33.886;151.198;2023-01-28T17:03:01;25.00;99.90
25991;DHT22;13779;-33.886;151.198;2023-01-28T17:05:31;25.00;99.90
25991;DHT22;13779;-33.886;151.198;2023-01-28T17:08:01;24.90;99.90
25991;DHT22;13779;-33.886;151.198;2023-01-28T17:10:31;24.90;99.90
25991;DHT22;13779;-33.886;151.198;2023-01-28T17:13:02;25.00;99.90
25991;DHT22;13779;-33.886;151.198;2023-01-28T17:15:34;24.90;99.90
25991;DHT22;13779;-33.886;151.198;2023-01-28T17:18:05;24.80;99.90
25991;DHT22;13779;-33.886;151.198;2023-01-28T17:20:36;24.80;99.90
25991;DHT22;13779;-33.886;151.198;2023-01-28T17:23:15;24.80;99.90
25991;DHT22;13779;-33.886;151.198;2023-01-28T17:25:45;24.80;99.90
25991;DHT22;13779;-33.886;151.198;2023-01-28T17:28:15;24.80;99.90
25991;DHT22;13779;-33.886;151.198;2023-01-28T17:30:45;24.80;99.90
25991;DHT22;13779;-33.886;151.198;2023-01-28T17:33:15;24.80;99.90
25991;DHT22;13779;-33.886;151.198;2023-01-28T17:35:46;24.80;99.90
25991;DHT22;13779;-33.886;151.198;2023-01-28T17:38:16;24.90;99.90
25991;DHT22;13779;-33.886;151.198;2023-01-28T17:40:47;24.90;99.90
25991;DHT22;13779;-33.886;151.198;2023-01-28T17:43:17;24.90;99.90
25991;DHT22;13779;-33.886;151.198;2023-01-28T17:45:47;24.90;99.90